createdAt,value
2023-02-07T00:01:33.683Z,-2.35
2023-02-07T00:04:02.145Z,-2.34
2023-02-07T00:06:32.676Z,-2.30
2023-02-07T00:09:03.714Z,-2.32
2023-02-07T00:11:31.486Z,-2.33
2023-02-07T00:13:59.975Z,-2.33
2023-02-07T00:16:28.683Z,-2.31
2023-02-07T00:18:59.743Z,-2.31
2023-02-07T00:21:29.301Z,-2.26
2023-02-07T00:23:57.638Z,-2.24
2023-02-07T00:26:27.456Z,-2.25
2023-02-07T00:28:56.297Z,-2.29
2023-02-07T00:31:30.821Z,-2.23
2023-02-07T00:34:01.408Z,-2.23
2023-02-07T00:36:30.724Z,-2.28
2023-02-07T00:39:01.184Z,-2.13
2023-02-07T00:41:29.422Z,-2.15
2023-02-07T00:43:57.261Z,-2.14
2023-02-07T00:46:25.481Z,-2.15
2023-02-07T00:48:55.136Z,-2.19
2023-02-07T00:51:23.074Z,-2.25
2023-02-07T00:53:50.574Z,-2.25
2023-02-07T00:56:18.606Z,-2.27
2023-02-07T00:58:46.248Z,-2.26
2023-02-07T01:01:14.883Z,-2.39
2023-02-07T01:03:42.886Z,-2.30
2023-02-07T01:06:11.672Z,-2.35
2023-02-07T01:08:42.136Z,-2.36
2023-02-07T01:11:15.330Z,-2.36
2023-02-07T01:13:44.524Z,-2.36
2023-02-07T01:16:22.644Z,-2.33
2023-02-07T01:18:50.899Z,-2.42
2023-02-07T01:21:21.225Z,-2.43
2023-02-07T01:23:49.345Z,-2.52
2023-02-07T01:26:17.579Z,-2.51
2023-02-07T01:28:45.341Z,-2.58
2023-02-07T01:31:13.997Z,-2.59
2023-02-07T01:33:41.939Z,-2.65
2023-02-07T01:36:12.267Z,-2.69
2023-02-07T01:38:39.872Z,-2.77
2023-02-07T01:41:08.275Z,-2.79
2023-02-07T01:43:36.489Z,-2.84
2023-02-07T01:46:04.513Z,-2.86
2023-02-07T01:48:36.037Z,-2.86
2023-02-07T01:51:08.307Z,-2.85
2023-02-07T01:53:38.503Z,-2.90
2023-02-07T01:56:13.394Z,-2.91
2023-02-07T01:58:45.277Z,-2.94
2023-02-07T02:01:24.869Z,-2.85
2023-02-07T02:03:56.062Z,-2.90
2023-02-07T02:06:26.693Z,-2.94
2023-02-07T02:08:58.735Z,-2.95
2023-02-07T02:11:46.410Z,-2.94
2023-02-07T02:14:51.223Z,-2.90
2023-02-07T02:17:24.739Z,-2.79
2023-02-07T02:20:13.810Z,-2.84
2023-02-07T02:23:06.050Z,-2.85
2023-02-07T02:26:01.962Z,-2.84
2023-02-07T02:28:42.745Z,-2.85
2023-02-07T02:31:26.642Z,-2.93
2023-02-07T02:34:36.475Z,-2.82
2023-02-07T02:37:23.494Z,-2.86
2023-02-07T02:40:03.672Z,-2.94
2023-02-07T02:42:36.435Z,-2.94
2023-02-07T02:45:41.323Z,-2.91
2023-02-07T02:48:12.124Z,-2.91
2023-02-07T02:50:40.165Z,-2.94
2023-02-07T02:53:10.884Z,-2.97
2023-02-07T02:56:08.531Z,-2.88
2023-02-07T02:58:41.700Z,-2.93
2023-02-07T03:01:27.974Z,-2.99
2023-02-07T03:04:09.162Z,-3.02
2023-02-07T03:06:55.438Z,-3.02
2023-02-07T03:09:36.081Z,-3.00
2023-02-07T03:12:20.593Z,-3.13
2023-02-07T03:15:03.599Z,-3.06
2023-02-07T03:17:45.206Z,-3.12
2023-02-07T03:20:43.005Z,-3.10
2023-02-07T03:23:12.360Z,-3.16
2023-02-07T03:25:43.157Z,-3.23
2023-02-07T03:28:11.838Z,-3.28
2023-02-07T03:30:40.543Z,-3.31
2023-02-07T03:33:13.479Z,-3.33
2023-02-07T03:35:56.029Z,-3.32
2023-02-07T03:38:24.472Z,-3.49
2023-02-07T03:41:00.279Z,-3.44
2023-02-07T03:43:30.859Z,-3.49
2023-02-07T03:45:58.896Z,-3.57
2023-02-07T03:48:26.479Z,-3.62
2023-02-07T03:50:54.050Z,-3.67
2023-02-07T03:53:22.214Z,-3.71
2023-02-07T03:55:49.765Z,-3.72
2023-02-07T03:58:17.452Z,-3.71
2023-02-07T04:00:45.576Z,-3.69
2023-02-07T04:03:13.084Z,-3.69
2023-02-07T04:05:40.873Z,-3.75
2023-02-07T04:08:08.488Z,-3.63
2023-02-07T04:10:36.051Z,-3.62
2023-02-07T04:13:03.553Z,-3.56
2023-02-07T04:15:31.244Z,-3.54
2023-02-07T04:17:58.802Z,-3.52
2023-02-07T04:20:26.313Z,-3.50
2023-02-07T04:22:53.852Z,-3.49
2023-02-07T04:25:21.616Z,-3.45
2023-02-07T04:27:52.068Z,-3.43
2023-02-07T04:30:19.786Z,-3.40
2023-02-07T04:32:47.413Z,-3.39
2023-02-07T04:35:15.016Z,-3.36
2023-02-07T04:37:42.636Z,-3.32
2023-02-07T04:40:11.209Z,-3.20
2023-02-07T04:42:40.051Z,-3.10
2023-02-07T04:45:07.922Z,-2.96
2023-02-07T04:47:35.438Z,-2.87
2023-02-07T04:50:02.977Z,-2.81
2023-02-07T04:52:30.619Z,-2.75
2023-02-07T04:54:58.131Z,-2.60
2023-02-07T04:57:25.679Z,-2.47
2023-02-07T04:59:53.151Z,-2.24
2023-02-07T05:02:20.762Z,-2.06
2023-02-07T05:04:48.378Z,-1.84
2023-02-07T05:07:15.943Z,-1.52
2023-02-07T05:09:43.565Z,-1.25
2023-02-07T05:12:11.179Z,-0.96
2023-02-07T05:14:38.721Z,-0.63
2023-02-07T05:17:06.421Z,-0.39
2023-02-07T05:19:34.214Z,-0.18
2023-02-07T05:22:01.773Z,0.15
2023-02-07T05:24:29.356Z,0.43
2023-02-07T05:26:57.007Z,0.74
2023-02-07T05:29:24.710Z,0.99
2023-02-07T05:32:10.487Z,1.36
2023-02-07T05:34:38.006Z,1.77
2023-02-07T05:37:05.504Z,2.14
2023-02-07T05:39:33.132Z,2.51
2023-02-07T05:42:00.686Z,2.86
2023-02-07T05:44:28.245Z,3.26
2023-02-07T05:46:58.558Z,3.60
2023-02-07T05:49:26.208Z,4.04
2023-02-07T05:51:53.744Z,4.37
2023-02-07T05:54:21.301Z,4.71
2023-02-07T05:56:48.941Z,4.94
2023-02-07T05:59:17.022Z,5.06
2023-02-07T06:01:47.465Z,5.26
2023-02-07T06:04:15.948Z,5.41
2023-02-07T06:06:44.134Z,5.62
2023-02-07T06:09:11.753Z,5.78
2023-02-07T06:11:39.269Z,5.93
2023-02-07T06:14:06.754Z,6.14
2023-02-07T06:16:34.367Z,6.29
2023-02-07T06:19:01.918Z,6.47
2023-02-07T06:21:44.336Z,6.59
2023-02-07T06:24:13.775Z,6.72
2023-02-07T06:26:41.534Z,6.89
2023-02-07T06:29:09.030Z,6.97
2023-02-07T06:31:36.535Z,7.20
2023-02-07T06:34:04.383Z,7.31
2023-02-07T06:36:34.823Z,7.46
2023-02-07T06:39:02.493Z,7.74
2023-02-07T06:41:35.737Z,7.79
2023-02-07T06:47:22.138Z,8.45
2023-02-07T06:49:49.710Z,8.63
2023-02-07T06:52:20.821Z,8.86
2023-02-07T06:54:48.479Z,9.08
2023-02-07T06:57:15.929Z,9.33
2023-02-07T06:59:43.458Z,9.51
2023-02-07T07:02:14.352Z,9.66
2023-02-07T07:04:41.829Z,9.98
2023-02-07T07:07:09.804Z,10.26
2023-02-07T07:09:37.375Z,10.45
2023-02-07T07:12:05.194Z,10.64
2023-02-07T07:14:33.018Z,10.79
2023-02-07T07:17:00.766Z,11.01
2023-02-07T07:19:28.368Z,11.11
2023-02-07T07:22:07.681Z,11.14
2023-02-07T07:24:56.046Z,11.11
2023-02-07T07:27:34.436Z,11.14
2023-02-07T07:30:01.985Z,11.27
2023-02-07T07:32:34.318Z,11.26
2023-02-07T07:35:05.347Z,11.17
2023-02-07T07:37:33.217Z,11.05
2023-02-07T07:40:01.137Z,10.91
2023-02-07T07:42:28.772Z,10.78
2023-02-07T07:45:10.461Z,10.61
2023-02-07T07:47:38.024Z,10.34
2023-02-07T07:50:07.177Z,10.34
2023-02-07T07:52:35.299Z,10.15
2023-02-07T07:55:02.852Z,10.05
2023-02-07T07:57:31.318Z,9.92
2023-02-07T07:59:58.968Z,9.80
2023-02-07T08:02:26.943Z,9.60
2023-02-07T08:04:55.985Z,9.45
2023-02-07T08:07:23.556Z,9.31
2023-02-07T08:09:51.072Z,9.08
2023-02-07T08:12:18.591Z,8.85
2023-02-07T08:14:46.186Z,8.60
2023-02-07T08:17:14.055Z,8.31
2023-02-07T08:19:41.593Z,8.01
2023-02-07T08:22:09.126Z,7.71
2023-02-07T08:24:37.008Z,7.50
2023-02-07T08:27:04.960Z,7.23
2023-02-07T08:29:32.504Z,6.95
2023-02-07T08:32:00.403Z,6.74
2023-02-07T08:34:29.191Z,6.36
2023-02-07T08:36:56.769Z,6.14
2023-02-07T08:39:24.306Z,5.87
2023-02-07T08:41:52.424Z,5.58
2023-02-07T08:44:19.959Z,5.34
2023-02-07T08:46:47.495Z,5.17
2023-02-07T08:49:15.118Z,4.93
2023-02-07T08:51:43.089Z,4.78
2023-02-07T08:54:10.708Z,4.58
2023-02-07T08:56:38.372Z,4.42
2023-02-07T08:59:05.975Z,4.26
2023-02-07T09:01:33.630Z,4.09
2023-02-07T09:04:01.269Z,3.93
2023-02-07T09:06:28.990Z,3.81
2023-02-07T09:08:56.467Z,3.64
2023-02-07T09:11:24.105Z,3.47
2023-02-07T09:13:51.656Z,3.34
2023-02-07T09:16:19.300Z,3.19
2023-02-07T09:18:46.885Z,3.11
2023-02-07T09:21:14.487Z,3.05
2023-02-07T09:23:42.104Z,2.92
2023-02-07T09:26:11.590Z,2.82
2023-02-07T09:28:39.713Z,2.76
2023-02-07T09:31:16.086Z,2.78
2023-02-07T09:33:43.692Z,2.53
2023-02-07T09:36:23.222Z,2.62
2023-02-07T09:38:51.218Z,2.46
2023-02-07T09:41:42.570Z,2.55
2023-02-07T09:44:15.746Z,2.36
2023-02-07T09:46:54.876Z,2.32
2023-02-07T09:49:34.136Z,2.28
2023-02-07T09:52:04.732Z,2.01
2023-02-07T09:54:43.293Z,2.07
2023-02-07T09:57:18.572Z,1.86
2023-02-07T10:00:23.695Z,1.96
2023-02-07T10:03:03.505Z,1.88
2023-02-07T10:05:37.542Z,1.69
2023-02-07T10:08:05.309Z,1.62
2023-02-07T10:11:01.288Z,1.72
2023-02-07T10:13:46.911Z,1.67
2023-02-07T10:16:29.653Z,1.61
2023-02-07T10:19:33.372Z,1.58
2023-02-07T10:22:19.400Z,1.36
2023-02-07T10:25:34.159Z,1.44
2023-02-07T10:28:28.589Z,1.41
2023-02-07T10:31:02.370Z,1.26
2023-02-07T10:33:35.687Z,1.39
2023-02-07T10:36:07.017Z,1.17
2023-02-07T10:38:44.459Z,1.09
2023-02-07T10:41:20.827Z,0.98
2023-02-07T10:43:49.180Z,0.84
2023-02-07T10:46:21.023Z,0.82
2023-02-07T10:48:48.656Z,0.70
2023-02-07T10:51:30.557Z,0.76
2023-02-07T10:54:10.312Z,0.68
2023-02-07T10:56:46.909Z,0.54
2023-02-07T10:59:40.776Z,0.54
2023-02-07T11:02:26.661Z,0.42
2023-02-07T11:05:02.208Z,0.25
2023-02-07T11:07:42.580Z,0.16
2023-02-07T11:10:19.419Z,0.16
2023-02-07T11:12:50.280Z,0.13
2023-02-07T11:15:21.419Z,0.06
2023-02-07T11:17:56.062Z,-0.03
2023-02-07T11:20:40.526Z,0.06
2023-02-07T11:23:15.773Z,0.01
2023-02-07T11:25:47.607Z,-0.22
2023-02-07T11:28:24.485Z,-0.08
2023-02-07T11:31:10.648Z,-0.05
2023-02-07T11:33:38.434Z,-0.26
2023-02-07T11:36:32.571Z,-0.18
2023-02-07T11:39:01.280Z,-0.28
2023-02-07T11:41:31.994Z,-0.31
2023-02-07T11:44:03.005Z,-0.36
2023-02-07T11:46:40.631Z,-0.42
2023-02-07T11:49:24.138Z,-0.48
2023-02-07T11:51:52.764Z,-0.23
2023-02-07T11:54:20.749Z,-0.47
2023-02-07T11:56:54.006Z,-0.46
2023-02-07T11:59:28.505Z,-0.49
2023-02-07T12:01:58.942Z,-0.59
2023-02-07T12:04:38.890Z,-0.55
2023-02-07T12:07:08.630Z,-0.72
2023-02-07T12:09:59.807Z,-0.67
2023-02-07T12:12:45.983Z,-0.67
2023-02-07T12:15:25.883Z,-0.81
2023-02-07T12:18:16.113Z,-0.80
2023-02-07T12:20:56.192Z,-0.86
2023-02-07T12:23:42.314Z,-0.89
2023-02-07T12:26:37.817Z,-0.87
2023-02-07T12:29:27.679Z,-0.93
2023-02-07T12:31:58.359Z,-1.06
2023-02-07T12:34:58.046Z,-1.06
2023-02-07T12:37:38.000Z,-1.16
2023-02-07T12:40:05.744Z,-1.35
2023-02-07T12:42:47.502Z,-1.40
2023-02-07T12:45:19.156Z,-1.53
2023-02-07T12:48:06.293Z,-1.50
2023-02-07T12:51:18.086Z,-1.51
2023-02-07T12:53:48.679Z,-1.66
2023-02-07T12:56:28.476Z,-1.70
2023-02-07T12:59:18.630Z,-1.67
2023-02-07T13:02:14.853Z,-1.90
2023-02-07T13:04:45.404Z,-1.87
2023-02-07T13:07:33.812Z,-1.80
2023-02-07T13:10:18.606Z,-1.91
2023-02-07T13:13:05.134Z,-1.94
2023-02-07T13:16:05.438Z,-1.93
2023-02-07T13:19:15.251Z,-1.95
2023-02-07T13:21:57.959Z,-2.07
2023-02-07T13:24:37.870Z,-2.15
2023-02-07T13:27:17.676Z,-2.20
2023-02-07T13:29:52.164Z,-2.20
2023-02-07T13:32:28.299Z,-2.24
2023-02-07T13:35:06.552Z,-2.30
2023-02-07T13:37:54.888Z,-2.35
2023-02-07T13:40:33.276Z,-2.28
2023-02-07T13:43:18.291Z,-2.31
2023-02-07T13:46:02.612Z,-2.38
2023-02-07T13:48:42.700Z,-2.45
2023-02-07T13:51:38.542Z,-2.36
2023-02-07T13:54:16.772Z,-2.54
2023-02-07T13:57:18.356Z,-2.45
2023-02-07T14:00:05.778Z,-2.45
2023-02-07T14:02:47.315Z,-2.67
2023-02-07T14:05:23.032Z,-2.56
2023-02-07T14:07:58.483Z,-2.78
2023-02-07T14:11:19.481Z,-2.53
2023-02-07T14:13:47.371Z,-2.71
2023-02-07T14:17:07.208Z,-2.64
2023-02-07T14:19:40.664Z,-2.70
2023-02-07T14:22:31.514Z,-2.66
2023-02-07T14:24:59.241Z,-2.80
2023-02-07T14:27:40.380Z,-2.80
2023-02-07T14:30:14.010Z,-2.82
2023-02-07T14:32:44.519Z,-2.89
2023-02-07T14:35:17.783Z,-2.85
2023-02-07T14:37:49.263Z,-2.86
2023-02-07T14:40:32.211Z,-2.84
2023-02-07T14:43:13.543Z,-2.80
2023-02-07T14:46:06.943Z,-2.77
2023-02-07T14:48:51.029Z,-2.88
2023-02-07T14:51:33.508Z,-3.05
2023-02-07T14:54:17.598Z,-3.04
2023-02-07T14:57:11.628Z,-2.89
2023-02-07T14:59:42.564Z,-2.83
2023-02-07T15:02:30.828Z,-2.89
2023-02-07T15:04:59.667Z,-3.07
2023-02-07T15:07:27.308Z,-3.15
2023-02-07T15:09:54.853Z,-3.15
2023-02-07T15:12:27.486Z,-3.11
2023-02-07T15:14:59.869Z,-3.23
2023-02-07T15:17:42.609Z,-3.24
2023-02-07T15:20:25.584Z,-3.13
2023-02-07T15:22:55.769Z,-3.16
2023-02-07T15:25:26.400Z,-3.23
2023-02-07T15:28:03.498Z,-3.33
2023-02-07T15:30:32.437Z,-3.24
2023-02-07T15:33:00.461Z,-3.24
2023-02-07T15:35:39.681Z,-3.34
2023-02-07T15:38:17.417Z,-3.16
2023-02-07T15:40:45.069Z,-3.27
2023-02-07T15:43:28.998Z,-3.16
2023-02-07T15:46:12.209Z,-3.26
2023-02-07T15:48:55.408Z,-3.23
2023-02-07T15:51:30.907Z,-3.20
2023-02-07T15:54:01.464Z,-3.28
2023-02-07T15:56:30.406Z,-3.32
2023-02-07T15:59:03.732Z,-3.32
2023-02-07T16:01:33.231Z,-3.38
2023-02-07T16:04:04.009Z,-3.31
2023-02-07T16:06:33.037Z,-3.37
2023-02-07T16:09:03.702Z,-3.38
2023-02-07T16:11:31.173Z,-3.40
2023-02-07T16:14:05.111Z,-3.31
2023-02-07T16:16:47.660Z,-3.16
2023-02-07T16:19:15.171Z,-3.13
2023-02-07T16:21:44.183Z,-3.35
2023-02-07T16:24:20.403Z,-3.40
2023-02-07T16:26:54.021Z,-3.62
2023-02-07T16:29:25.595Z,-3.34
2023-02-07T16:31:57.911Z,-3.56
2023-02-07T16:34:27.133Z,-3.62
2023-02-07T16:36:56.337Z,-3.62
2023-02-07T16:39:24.165Z,-3.64
2023-02-07T16:42:14.382Z,-3.55
2023-02-07T16:44:42.434Z,-3.68
2023-02-07T16:47:14.419Z,-3.59
2023-02-07T16:49:45.153Z,-3.61
2023-02-07T16:52:14.514Z,-3.65
2023-02-07T16:54:50.567Z,-3.66
2023-02-07T16:57:21.245Z,-3.66
2023-02-07T16:59:49.843Z,-3.67
2023-02-07T17:02:18.503Z,-3.67
2023-02-07T17:04:46.610Z,-3.71
2023-02-07T17:07:14.259Z,-3.71
2023-02-07T17:09:43.284Z,-3.67
2023-02-07T17:12:10.942Z,-3.80
2023-02-07T17:14:38.671Z,-3.71
2023-02-07T17:17:06.581Z,-3.73
2023-02-07T17:19:34.269Z,-3.71
2023-02-07T17:22:02.181Z,-3.75
2023-02-07T17:24:30.106Z,-3.74
2023-02-07T17:26:58.813Z,-3.85
2023-02-07T17:29:30.508Z,-3.82
2023-02-07T17:31:58.116Z,-3.83
2023-02-07T17:34:25.771Z,-3.84
2023-02-07T17:36:53.385Z,-3.89
2023-02-07T17:39:21.137Z,-3.92
2023-02-07T17:41:49.082Z,-4.00
2023-02-07T17:44:21.603Z,-4.01
2023-02-07T17:46:49.303Z,-4.02
2023-02-07T17:49:18.023Z,-4.02
2023-02-07T17:51:46.540Z,-4.06
2023-02-07T17:54:14.371Z,-4.08
2023-02-07T17:56:42.320Z,-4.11
2023-02-07T17:59:22.555Z,-3.96
2023-02-07T18:01:50.293Z,-4.08
2023-02-07T18:04:17.994Z,-4.08
2023-02-07T18:06:45.619Z,-4.10
2023-02-07T18:09:22.835Z,-4.05
2023-02-07T18:11:50.908Z,-4.13
2023-02-07T18:14:18.495Z,-4.18
2023-02-07T18:16:46.387Z,-4.21
2023-02-07T18:19:17.303Z,-4.21
2023-02-07T18:21:45.291Z,-4.30
2023-02-07T18:24:12.879Z,-4.34
2023-02-07T18:26:40.506Z,-4.32
2023-02-07T18:29:08.145Z,-4.37
2023-02-07T18:31:35.783Z,-4.32
2023-02-07T18:34:03.370Z,-4.37
2023-02-07T18:36:37.276Z,-4.37
2023-02-07T18:39:04.672Z,-4.17
2023-02-07T18:41:32.216Z,-4.34
2023-02-07T18:43:59.754Z,-4.43
2023-02-07T18:46:28.026Z,-4.50
2023-02-07T18:48:57.312Z,-4.53
2023-02-07T18:51:25.953Z,-4.65
2023-02-07T18:53:56.393Z,-4.76
2023-02-07T18:56:25.849Z,-4.71
2023-02-07T18:58:56.879Z,-4.79
2023-02-07T19:01:26.345Z,-4.78
2023-02-07T19:03:55.502Z,-4.78
2023-02-07T19:06:25.807Z,-4.76
2023-02-07T19:08:57.082Z,-4.78
2023-02-07T19:11:24.894Z,-4.78
2023-02-07T19:13:52.736Z,-4.83
2023-02-07T19:16:22.562Z,-4.80
2023-02-07T19:18:50.750Z,-4.90
2023-02-07T19:21:27.535Z,-4.88
2023-02-07T19:23:57.422Z,-4.91
2023-02-07T19:26:26.083Z,-5.03
2023-02-07T19:28:54.511Z,-5.05
2023-02-07T19:31:22.860Z,-5.27
2023-02-07T19:33:53.820Z,-5.07
2023-02-07T19:36:26.140Z,-5.09
2023-02-07T19:38:54.846Z,-5.09
2023-02-07T19:41:24.742Z,-5.13
2023-02-07T19:44:00.983Z,-5.13
2023-02-07T19:46:49.053Z,-5.22
2023-02-07T19:49:16.726Z,-5.16
2023-02-07T19:51:44.305Z,-5.20
2023-02-07T19:54:12.257Z,-5.26
2023-02-07T19:56:39.915Z,-5.26
2023-02-07T19:59:07.613Z,-5.28
2023-02-07T20:01:38.301Z,-5.31
2023-02-07T20:04:06.532Z,-5.32
2023-02-07T20:06:35.160Z,-5.34
2023-02-07T20:09:04.686Z,-5.30
2023-02-07T20:11:32.544Z,-5.32
2023-02-07T20:14:03.782Z,-5.32
2023-02-07T20:16:35.401Z,-5.26
2023-02-07T20:19:40.081Z,-5.31
2023-02-07T20:25:04.307Z,-5.35
2023-02-07T20:27:52.689Z,-5.55
2023-02-07T20:30:20.295Z,-5.35
2023-02-07T20:32:48.526Z,-5.38
2023-02-07T20:35:16.234Z,-5.40
2023-02-07T20:37:43.853Z,-5.41
2023-02-07T20:40:11.832Z,-5.54
2023-02-07T20:42:39.984Z,-5.46
2023-02-07T20:45:08.217Z,-5.48
2023-02-07T20:47:36.067Z,-5.51
2023-02-07T20:50:04.466Z,-5.50
2023-02-07T20:52:32.029Z,-5.49
2023-02-07T20:54:59.654Z,-5.49
2023-02-07T20:57:27.547Z,-5.50
2023-02-07T20:59:55.103Z,-5.50
2023-02-07T21:02:22.591Z,-5.49
2023-02-07T21:04:50.311Z,-5.50
2023-02-07T21:07:18.027Z,-5.52
2023-02-07T21:09:45.720Z,-5.56
2023-02-07T21:12:13.630Z,-5.62
2023-02-07T21:14:41.885Z,-5.65
2023-02-07T21:17:10.896Z,-5.69
2023-02-07T21:19:40.142Z,-5.74
2023-02-07T21:22:08.486Z,-5.72
2023-02-07T21:24:36.069Z,-5.76
2023-02-07T21:27:05.478Z,-5.72
2023-02-07T21:29:34.521Z,-5.72
2023-02-07T21:32:02.269Z,-5.69
2023-02-07T21:34:29.866Z,-5.66
2023-02-07T21:36:58.302Z,-5.63
2023-02-07T21:39:25.915Z,-5.63
2023-02-07T21:41:53.789Z,-5.63
2023-02-07T21:44:22.483Z,-5.63
2023-02-07T21:46:51.154Z,-5.64
2023-02-07T21:49:21.109Z,-5.63
2023-02-07T21:51:50.349Z,-5.68
2023-02-07T21:54:18.088Z,-5.77
2023-02-07T21:56:46.449Z,-5.77
2023-02-07T21:59:19.140Z,-5.75
2023-02-07T22:01:47.645Z,-5.76
2023-02-07T22:04:16.163Z,-5.73
2023-02-07T22:06:45.192Z,-5.76
2023-02-07T22:09:14.601Z,-5.74
2023-02-07T22:11:42.850Z,-5.75
2023-02-07T22:14:12.861Z,-5.80
2023-02-07T22:16:40.714Z,-5.79
2023-02-07T22:19:12.293Z,-5.69
2023-02-07T22:21:40.844Z,-5.70
2023-02-07T22:24:10.562Z,-5.80
2023-02-07T22:26:38.182Z,-5.75
2023-02-07T22:29:06.964Z,-5.71
2023-02-07T22:31:37.730Z,-5.74
2023-02-07T22:34:13.680Z,-5.70
2023-02-07T22:36:46.467Z,-5.73
2023-02-07T22:39:16.962Z,-5.74
2023-02-07T22:41:45.555Z,-5.74
2023-02-07T22:44:13.396Z,-5.78
2023-02-07T22:46:41.083Z,-5.79
2023-02-07T22:49:08.701Z,-5.82
2023-02-07T22:51:37.664Z,-5.78
2023-02-07T22:54:08.069Z,-5.76
2023-02-07T22:56:38.027Z,-5.76
2023-02-07T22:59:06.337Z,-5.88
2023-02-07T23:01:36.982Z,-5.95
2023-02-07T23:04:06.253Z,-5.92
2023-02-07T23:06:34.184Z,-6.07
2023-02-07T23:09:02.012Z,-6.08
2023-02-07T23:11:29.699Z,-6.07
2023-02-07T23:13:57.350Z,-6.08
2023-02-07T23:16:28.938Z,-6.10
2023-02-07T23:18:59.042Z,-6.05
2023-02-07T23:21:27.433Z,-6.16
2023-02-07T23:23:57.505Z,-6.21
2023-02-07T23:26:26.976Z,-6.32
2023-02-07T23:28:55.408Z,-6.40
2023-02-07T23:31:25.111Z,-6.35
2023-02-07T23:33:53.568Z,-6.37
2023-02-07T23:36:21.747Z,-6.35
2023-02-07T23:38:50.480Z,-6.38
2023-02-07T23:41:18.410Z,-6.37
2023-02-07T23:43:47.003Z,-6.34
2023-02-07T23:46:16.584Z,-6.32
2023-02-07T23:48:44.322Z,-6.30
2023-02-07T23:51:13.778Z,-6.23
2023-02-07T23:53:43.107Z,-6.30
2023-02-07T23:56:15.493Z,-6.27
2023-02-07T23:58:43.226Z,-6.31
